sensor_id;sensor_type;location;lat;lon;timestamp;pressure;altitude;pressure_sealevel;temperature;humidity
46594;BME280;35342;52.378;4.648;2023-03-12T00:00:44;63944.34;;;-145.59;100.00
46594;BME280;35342;52.378;4.648;2023-03-12T00:03:10;63944.34;;;-145.59;100.00
46594;BME280;35342;52.378;4.648;2023-03-12T00:05:38;63944.34;;;-145.59;100.00
46594;BME280;35342;52.378;4.648;2023-03-12T00:08:05;63944.34;;;-145.59;100.00
46594;BME280;35342;52.378;4.648;2023-03-12T00:10:31;63944.34;;;-145.59;100.00
46594;BME280;35342;52.378;4.648;2023-03-12T00:12:57;63944.34;;;-145.59;100.00
46594;BME280;35342;52.378;4.648;2023-03-12T00:15:24;63944.34;;;-145.59;100.00
46594;BME280;35342;52.378;4.648;2023-03-12T00:17:50;63944.34;;;-145.59;100.00
46594;BME280;35342;52.378;4.648;2023-03-12T00:20:16;63944.34;;;-145.59;100.00
46594;BME280;35342;52.378;4.648;2023-03-12T00:22:42;63944.34;;;-145.59;100.00
46594;BME280;35342;52.378;4.648;2023-03-12T00:25:13;63944.34;;;-145.59;100.00
46594;BME280;35342;52.378;4.648;2023-03-12T00:27:40;63944.34;;;-145.59;100.00
46594;BME280;35342;52.378;4.648;2023-03-12T00:30:08;63944.34;;;-145.59;100.00
46594;BME280;35342;52.378;4.648;2023-03-12T00:32:36;63944.34;;;-145.59;100.00
46594;BME280;35342;52.378;4.648;2023-03-12T00:35:03;63944.34;;;-145.59;100.00
46594;BME280;35342;52.378;4.648;2023-03-12T00:37:30;63944.34;;;-145.59;100.00
46594;BME280;35342;52.378;4.648;2023-03-12T00:39:58;63944.34;;;-145.59;100.00
46594;BME280;35342;52.378;4.648;2023-03-12T00:42:24;63944.34;;;-145.59;100.00
46594;BME280;35342;52.378;4.648;2023-03-12T00:44:50;63944.34;;;-145.59;100.00
46594;BME280;35342;52.378;4.648;2023-03-12T00:47:15;63944.34;;;-145.59;100.00
46594;BME280;35342;52.378;4.648;2023-03-12T00:49:41;63944.34;;;-145.59;100.00
46594;BME280;35342;52.378;4.648;2023-03-12T00:52:07;63944.34;;;-145.59;100.00
46594;BME280;35342;52.378;4.648;2023-03-12T00:54:32;63944.34;;;-145.59;100.00
46594;BME280;35342;52.378;4.648;2023-03-12T00:56:59;63944.34;;;-145.59;100.00
46594;BME280;35342;52.378;4.648;2023-03-12T00:59:24;63944.34;;;-145.59;100.00
46594;BME280;35342;52.378;4.648;2023-03-12T01:01:50;63944.34;;;-145.59;100.00
46594;BME280;35342;52.378;4.648;2023-03-12T01:04:16;63944.34;;;-145.59;100.00
46594;BME280;35342;52.378;4.648;2023-03-12T01:06:42;63944.34;;;-145.59;100.00
46594;BME280;35342;52.378;4.648;2023-03-12T01:09:08;63944.34;;;-145.59;100.00
46594;BME280;35342;52.378;4.648;2023-03-12T01:11:36;63944.34;;;-145.59;100.00
46594;BME280;35342;52.378;4.648;2023-03-12T01:14:05;63944.34;;;-145.59;100.00
46594;BME280;35342;52.378;4.648;2023-03-12T01:16:32;63944.34;;;-145.59;100.00
46594;BME280;35342;52.378;4.648;2023-03-12T01:19:00;63944.34;;;-145.59;100.00
46594;BME280;35342;52.378;4.648;2023-03-12T01:21:28;63944.34;;;-145.59;100.00
46594;BME280;35342;52.378;4.648;2023-03-12T01:23:55;63944.34;;;-145.59;100.00
46594;BME280;35342;52.378;4.648;2023-03-12T01:26:22;63944.34;;;-145.59;100.00
46594;BME280;35342;52.378;4.648;2023-03-12T01:28:48;63944.34;;;-145.59;100.00
46594;BME280;35342;52.378;4.648;2023-03-12T01:31:17;63944.34;;;-145.59;100.00
46594;BME280;35342;52.378;4.648;2023-03-12T01:33:45;63944.34;;;-145.59;100.00
46594;BME280;35342;52.378;4.648;2023-03-12T01:36:23;63944.34;;;-145.59;100.00
46594;BME280;35342;52.378;4.648;2023-03-12T01:38:51;63944.34;;;-145.59;100.00
46594;BME280;35342;52.378;4.648;2023-03-12T01:41:18;63944.34;;;-145.59;100.00
46594;BME280;35342;52.378;4.648;2023-03-12T01:43:44;63944.34;;;-145.59;100.00
46594;BME280;35342;52.378;4.648;2023-03-12T01:49:23;63944.34;;;-145.59;100.00
46594;BME280;35342;52.378;4.648;2023-03-12T01:52:10;63944.34;;;-145.59;100.00
46594;BME280;35342;52.378;4.648;2023-03-12T01:54:44;63944.34;;;-145.59;100.00
46594;BME280;35342;52.378;4.648;2023-03-12T01:57:22;63944.34;;;-145.59;100.00
46594;BME280;35342;52.378;4.648;2023-03-12T02:00:10;63944.34;;;-145.59;100.00
46594;BME280;35342;52.378;4.648;2023-03-12T02:02:39;63944.34;;;-145.59;100.00
46594;BME280;35342;52.378;4.648;2023-03-12T02:05:37;63944.34;;;-145.59;100.00
46594;BME280;35342;52.378;4.648;2023-03-12T02:08:10;63944.34;;;-145.59;100.00
46594;BME280;35342;52.378;4.648;2023-03-12T02:10:36;63944.34;;;-145.59;100.00
46594;BME280;35342;52.378;4.648;2023-03-12T02:13:02;63944.34;;;-145.59;100.00
46594;BME280;35342;52.378;4.648;2023-03-12T02:15:27;63944.34;;;-145.59;100.00
46594;BME280;35342;52.378;4.648;2023-03-12T02:17:53;63944.34;;;-145.59;100.00
46594;BME280;35342;52.378;4.648;2023-03-12T02:20:52;63944.34;;;-145.59;100.00
46594;BME280;35342;52.378;4.648;2023-03-12T02:23:54;63944.34;;;-145.59;100.00
46594;BME280;35342;52.378;4.648;2023-03-12T02:26:21;63944.34;;;-145.59;100.00
46594;BME280;35342;52.378;4.648;2023-03-12T02:28:49;63944.34;;;-145.59;100.00
46594;BME280;35342;52.378;4.648;2023-03-12T02:31:19;63944.34;;;-145.59;100.00
46594;BME280;35342;52.378;4.648;2023-03-12T02:33:47;63944.34;;;-145.59;100.00
46594;BME280;35342;52.378;4.648;2023-03-12T02:36:12;63944.34;;;-145.59;100.00
46594;BME280;35342;52.378;4.648;2023-03-12T02:38:48;63944.34;;;-145.59;100.00
46594;BME280;35342;52.378;4.648;2023-03-12T02:41:30;63944.34;;;-145.59;100.00
46594;BME280;35342;52.378;4.648;2023-03-12T02:46:52;63944.34;;;-145.59;100.00
46594;BME280;35342;52.378;4.648;2023-03-12T02:49:20;63944.34;;;-145.59;100.00
46594;BME280;35342;52.378;4.648;2023-03-12T02:51:47;63944.34;;;-145.59;100.00
46594;BME280;35342;52.378;4.648;2023-03-12T02:54:16;63944.34;;;-145.59;100.00
46594;BME280;35342;52.378;4.648;2023-03-12T02:56:43;63944.34;;;-145.59;100.00
46594;BME280;35342;52.378;4.648;2023-03-12T02:59:10;63944.34;;;-145.59;100.00
46594;BME280;35342;52.378;4.648;2023-03-12T03:01:38;63944.34;;;-145.59;100.00
46594;BME280;35342;52.378;4.648;2023-03-12T03:04:06;63944.34;;;-145.59;100.00
46594;BME280;35342;52.378;4.648;2023-03-12T03:06:34;63944.34;;;-145.59;100.00
46594;BME280;35342;52.378;4.648;2023-03-12T03:09:01;63944.34;;;-145.59;100.00
46594;BME280;35342;52.378;4.648;2023-03-12T03:11:27;63944.34;;;-145.59;100.00
46594;BME280;35342;52.378;4.648;2023-03-12T03:13:54;63944.34;;;-145.59;100.00
46594;BME280;35342;52.378;4.648;2023-03-12T03:16:20;63944.34;;;-145.59;100.00
46594;BME280;35342;52.378;4.648;2023-03-12T03:18:46;63944.34;;;-145.59;100.00
46594;BME280;35342;52.378;4.648;2023-03-12T03:21:13;63944.34;;;-145.59;100.00
46594;BME280;35342;52.378;4.648;2023-03-12T03:23:49;63944.34;;;-145.59;100.00
46594;BME280;35342;52.378;4.648;2023-03-12T03:26:18;63944.34;;;-145.59;100.00
46594;BME280;35342;52.378;4.648;2023-03-12T03:28:44;63944.34;;;-145.59;100.00
46594;BME280;35342;52.378;4.648;2023-03-12T03:31:10;63944.34;;;-145.59;100.00
46594;BME280;35342;52.378;4.648;2023-03-12T03:33:37;63944.34;;;-145.59;100.00
46594;BME280;35342;52.378;4.648;2023-03-12T03:36:06;63944.34;;;-145.59;100.00
46594;BME280;35342;52.378;4.648;2023-03-12T03:38:32;63944.34;;;-145.59;100.00
46594;BME280;35342;52.378;4.648;2023-03-12T03:40:59;63944.34;;;-145.59;100.00
46594;BME280;35342;52.378;4.648;2023-03-12T03:43:26;63944.34;;;-145.59;100.00
46594;BME280;35342;52.378;4.648;2023-03-12T03:46:03;63944.34;;;-145.59;100.00
46594;BME280;35342;52.378;4.648;2023-03-12T03:48:30;63944.34;;;-145.59;100.00
46594;BME280;35342;52.378;4.648;2023-03-12T03:51:04;63944.34;;;-145.59;100.00
46594;BME280;35342;52.378;4.648;2023-03-12T03:53:31;63944.34;;;-145.59;100.00
46594;BME280;35342;52.378;4.648;2023-03-12T03:55:57;63944.34;;;-145.59;100.00
46594;BME280;35342;52.378;4.648;2023-03-12T03:58:23;63944.34;;;-145.59;100.00
46594;BME280;35342;52.378;4.648;2023-03-12T04:00:49;63944.34;;;-145.59;100.00
46594;BME280;35342;52.378;4.648;2023-03-12T04:03:15;63944.34;;;-145.59;100.00
46594;BME280;35342;52.378;4.648;2023-03-12T04:05:41;63944.34;;;-145.59;100.00
46594;BME280;35342;52.378;4.648;2023-03-12T04:08:11;63944.34;;;-145.59;100.00
46594;BME280;35342;52.378;4.648;2023-03-12T04:10:37;63944.34;;;-145.59;100.00
46594;BME280;35342;52.378;4.648;2023-03-12T04:13:03;63944.34;;;-145.59;100.00
46594;BME280;35342;52.378;4.648;2023-03-12T04:15:28;63944.34;;;-145.59;100.00
46594;BME280;35342;52.378;4.648;2023-03-12T04:17:54;63944.34;;;-145.59;100.00
46594;BME280;35342;52.378;4.648;2023-03-12T04:20:20;63944.34;;;-145.59;100.00
46594;BME280;35342;52.378;4.648;2023-03-12T04:22:46;63944.34;;;-145.59;100.00
46594;BME280;35342;52.378;4.648;2023-03-12T04:25:11;63944.34;;;-145.59;100.00
46594;BME280;35342;52.378;4.648;2023-03-12T04:27:37;63944.34;;;-145.59;100.00
46594;BME280;35342;52.378;4.648;2023-03-12T04:30:04;63944.34;;;-145.59;100.00
46594;BME280;35342;52.378;4.648;2023-03-12T04:32:30;63944.34;;;-145.59;100.00
46594;BME280;35342;52.378;4.648;2023-03-12T04:34:55;63944.34;;;-145.59;100.00
46594;BME280;35342;52.378;4.648;2023-03-12T04:37:21;63944.34;;;-145.59;100.00
46594;BME280;35342;52.378;4.648;2023-03-12T04:39:47;63944.34;;;-145.59;100.00
46594;BME280;35342;52.378;4.648;2023-03-12T04:42:12;63944.34;;;-145.59;100.00
46594;BME280;35342;52.378;4.648;2023-03-12T04:44:38;63944.34;;;-145.59;100.00
46594;BME280;35342;52.378;4.648;2023-03-12T04:47:05;63944.34;;;-145.59;100.00
46594;BME280;35342;52.378;4.648;2023-03-12T04:49:31;63944.34;;;-145.59;100.00
46594;BME280;35342;52.378;4.648;2023-03-12T04:51:57;63944.34;;;-145.59;100.00
46594;BME280;35342;52.378;4.648;2023-03-12T04:54:22;63944.34;;;-145.59;100.00
46594;BME280;35342;52.378;4.648;2023-03-12T04:56:50;63944.34;;;-145.59;100.00
46594;BME280;35342;52.378;4.648;2023-03-12T04:59:16;63944.34;;;-145.59;100.00
46594;BME280;35342;52.378;4.648;2023-03-12T05:01:42;63944.34;;;-145.59;100.00
46594;BME280;35342;52.378;4.648;2023-03-12T05:04:08;63944.34;;;-145.59;100.00
46594;BME280;35342;52.378;4.648;2023-03-12T05:06:34;63944.34;;;-145.59;100.00
46594;BME280;35342;52.378;4.648;2023-03-12T05:09:00;63944.34;;;-145.59;100.00
46594;BME280;35342;52.378;4.648;2023-03-12T05:11:26;63944.34;;;-145.59;100.00
46594;BME280;35342;52.378;4.648;2023-03-12T05:13:52;63944.34;;;-145.59;100.00
46594;BME280;35342;52.378;4.648;2023-03-12T05:16:18;63944.34;;;-145.59;100.00
46594;BME280;35342;52.378;4.648;2023-03-12T05:18:44;63944.34;;;-145.59;100.00
46594;BME280;35342;52.378;4.648;2023-03-12T05:21:17;63944.34;;;-145.59;100.00
46594;BME280;35342;52.378;4.648;2023-03-12T05:23:43;63944.34;;;-145.59;100.00
46594;BME280;35342;52.378;4.648;2023-03-12T05:26:25;63944.34;;;-145.59;100.00
46594;BME280;35342;52.378;4.648;2023-03-12T05:28:51;63944.34;;;-145.59;100.00
46594;BME280;35342;52.378;4.648;2023-03-12T05:31:18;63944.34;;;-145.59;100.00
46594;BME280;35342;52.378;4.648;2023-03-12T05:33:45;63944.34;;;-145.59;100.00
46594;BME280;35342;52.378;4.648;2023-03-12T05:36:12;63944.34;;;-145.59;100.00
46594;BME280;35342;52.378;4.648;2023-03-12T05:38:39;63944.34;;;-145.59;100.00
46594;BME280;35342;52.378;4.648;2023-03-12T05:41:05;63944.34;;;-145.59;100.00
46594;BME280;35342;52.378;4.648;2023-03-12T05:43:31;63944.34;;;-145.59;100.00
46594;BME280;35342;52.378;4.648;2023-03-12T05:46:03;63944.34;;;-145.59;100.00
46594;BME280;35342;52.378;4.648;2023-03-12T05:48:29;63944.34;;;-145.59;100.00
46594;BME280;35342;52.378;4.648;2023-03-12T05:50:56;63944.34;;;-145.59;100.00
46594;BME280;35342;52.378;4.648;2023-03-12T05:53:22;63944.34;;;-145.59;100.00
46594;BME280;35342;52.378;4.648;2023-03-12T05:55:48;63944.34;;;-145.59;100.00
46594;BME280;35342;52.378;4.648;2023-03-12T05:58:14;63944.34;;;-145.59;100.00
46594;BME280;35342;52.378;4.648;2023-03-12T06:00:42;63944.34;;;-145.59;100.00
46594;BME280;35342;52.378;4.648;2023-03-12T06:03:09;63944.34;;;-145.59;100.00
46594;BME280;35342;52.378;4.648;2023-03-12T06:05:36;63944.34;;;-145.59;100.00
46594;BME280;35342;52.378;4.648;2023-03-12T06:08:04;63944.34;;;-145.59;100.00
46594;BME280;35342;52.378;4.648;2023-03-12T06:10:30;63944.34;;;-145.59;100.00
46594;BME280;35342;52.378;4.648;2023-03-12T06:12:56;63944.34;;;-145.59;100.00
46594;BME280;35342;52.378;4.648;2023-03-12T06:15:22;63944.34;;;-145.59;100.00
46594;BME280;35342;52.378;4.648;2023-03-12T06:17:48;63944.34;;;-145.59;100.00
46594;BME280;35342;52.378;4.648;2023-03-12T06:20:14;63944.34;;;-145.59;100.00
46594;BME280;35342;52.378;4.648;2023-03-12T06:22:40;63944.34;;;-145.59;100.00
46594;BME280;35342;52.378;4.648;2023-03-12T06:25:06;63944.34;;;-145.59;100.00
46594;BME280;35342;52.378;4.648;2023-03-12T06:27:32;63944.34;;;-145.59;100.00
46594;BME280;35342;52.378;4.648;2023-03-12T06:29:58;63944.34;;;-145.59;100.00
46594;BME280;35342;52.378;4.648;2023-03-12T06:32:23;63944.34;;;-145.59;100.00
46594;BME280;35342;52.378;4.648;2023-03-12T06:34:50;63944.34;;;-145.59;100.00
46594;BME280;35342;52.378;4.648;2023-03-12T06:37:16;63944.34;;;-145.59;100.00
46594;BME280;35342;52.378;4.648;2023-03-12T06:39:42;63944.34;;;-145.59;100.00
46594;BME280;35342;52.378;4.648;2023-03-12T06:42:07;63944.34;;;-145.59;100.00
46594;BME280;35342;52.378;4.648;2023-03-12T06:44:33;63944.34;;;-145.59;100.00
46594;BME280;35342;52.378;4.648;2023-03-12T06:46:59;63944.34;;;-145.59;100.00
46594;BME280;35342;52.378;4.648;2023-03-12T06:49:25;63944.34;;;-145.59;100.00
46594;BME280;35342;52.378;4.648;2023-03-12T06:51:52;63944.34;;;-145.59;100.00
46594;BME280;35342;52.378;4.648;2023-03-12T06:54:18;63944.34;;;-145.59;100.00
46594;BME280;35342;52.378;4.648;2023-03-12T06:56:44;63944.34;;;-145.59;100.00
46594;BME280;35342;52.378;4.648;2023-03-12T06:59:10;63944.34;;;-145.59;100.00
46594;BME280;35342;52.378;4.648;2023-03-12T07:01:36;63944.34;;;-145.59;100.00
46594;BME280;35342;52.378;4.648;2023-03-12T07:04:01;63944.34;;;-145.59;100.00
46594;BME280;35342;52.378;4.648;2023-03-12T07:06:27;63944.34;;;-145.59;100.00
46594;BME280;35342;52.378;4.648;2023-03-12T07:08:53;63944.34;;;-145.59;100.00
46594;BME280;35342;52.378;4.648;2023-03-12T07:11:19;63944.34;;;-145.59;100.00
46594;BME280;35342;52.378;4.648;2023-03-12T07:13:45;63944.34;;;-145.59;100.00
46594;BME280;35342;52.378;4.648;2023-03-12T07:16:11;63944.34;;;-145.59;100.00
46594;BME280;35342;52.378;4.648;2023-03-12T07:18:37;63944.34;;;-145.59;100.00
46594;BME280;35342;52.378;4.648;2023-03-12T07:21:03;63944.34;;;-145.59;100.00
46594;BME280;35342;52.378;4.648;2023-03-12T07:23:29;63944.34;;;-145.59;100.00
46594;BME280;35342;52.378;4.648;2023-03-12T07:25:55;63944.34;;;-145.59;100.00
46594;BME280;35342;52.378;4.648;2023-03-12T07:28:21;63944.34;;;-145.59;100.00
46594;BME280;35342;52.378;4.648;2023-03-12T07:30:47;63944.34;;;-145.59;100.00
46594;BME280;35342;52.378;4.648;2023-03-12T07:33:18;63944.34;;;-145.59;100.00
46594;BME280;35342;52.378;4.648;2023-03-12T07:35:46;63944.34;;;-145.59;100.00
46594;BME280;35342;52.378;4.648;2023-03-12T07:38:12;63944.34;;;-145.59;100.00
46594;BME280;35342;52.378;4.648;2023-03-12T07:40:38;63944.34;;;-145.59;100.00
46594;BME280;35342;52.378;4.648;2023-03-12T07:43:04;63944.34;;;-145.59;100.00
46594;BME280;35342;52.378;4.648;2023-03-12T07:45:37;63944.34;;;-145.59;100.00
46594;BME280;35342;52.378;4.648;2023-03-12T07:48:04;63944.34;;;-145.59;100.00
46594;BME280;35342;52.378;4.648;2023-03-12T07:50:31;63944.34;;;-145.59;100.00
46594;BME280;35342;52.378;4.648;2023-03-12T07:52:56;63944.34;;;-145.59;100.00
46594;BME280;35342;52.378;4.648;2023-03-12T07:55:22;63944.34;;;-145.59;100.00
46594;BME280;35342;52.378;4.648;2023-03-12T07:57:48;63944.34;;;-145.59;100.00
46594;BME280;35342;52.378;4.648;2023-03-12T08:00:14;63944.34;;;-145.59;100.00
46594;BME280;35342;52.378;4.648;2023-03-12T08:02:41;63944.34;;;-145.59;100.00
46594;BME280;35342;52.378;4.648;2023-03-12T08:05:08;63944.34;;;-145.59;100.00
46594;BME280;35342;52.378;4.648;2023-03-12T08:07:34;63944.34;;;-145.59;100.00
46594;BME280;35342;52.378;4.648;2023-03-12T08:10:05;63944.34;;;-145.59;100.00
46594;BME280;35342;52.378;4.648;2023-03-12T08:12:32;63944.34;;;-145.59;100.00
46594;BME280;35342;52.378;4.648;2023-03-12T08:14:58;63944.34;;;-145.59;100.00
46594;BME280;35342;52.378;4.648;2023-03-12T08:17:23;63944.34;;;-145.59;100.00
46594;BME280;35342;52.378;4.648;2023-03-12T08:19:50;63944.34;;;-145.59;100.00
46594;BME280;35342;52.378;4.648;2023-03-12T08:22:15;63944.34;;;-145.59;100.00
46594;BME280;35342;52.378;4.648;2023-03-12T08:24:41;63944.34;;;-145.59;100.00
46594;BME280;35342;52.378;4.648;2023-03-12T08:27:08;63944.34;;;-145.59;100.00
46594;BME280;35342;52.378;4.648;2023-03-12T08:29:34;63944.34;;;-145.59;100.00
46594;BME280;35342;52.378;4.648;2023-03-12T08:32:00;63944.34;;;-145.59;100.00
46594;BME280;35342;52.378;4.648;2023-03-12T08:34:26;63944.34;;;-145.59;100.00
46594;BME280;35342;52.378;4.648;2023-03-12T08:36:51;63944.34;;;-145.59;100.00
46594;BME280;35342;52.378;4.648;2023-03-12T08:39:17;63944.34;;;-145.59;100.00
46594;BME280;35342;52.378;4.648;2023-03-12T08:41:43;63944.34;;;-145.59;100.00
46594;BME280;35342;52.378;4.648;2023-03-12T08:44:09;63944.34;;;-145.59;100.00
46594;BME280;35342;52.378;4.648;2023-03-12T08:46:34;63944.34;;;-145.59;100.00
46594;BME280;35342;52.378;4.648;2023-03-12T08:49:00;63944.34;;;-145.59;100.00
46594;BME280;35342;52.378;4.648;2023-03-12T08:51:26;63944.34;;;-145.59;100.00
46594;BME280;35342;52.378;4.648;2023-03-12T08:53:51;63944.34;;;-145.59;100.00
46594;BME280;35342;52.378;4.648;2023-03-12T08:56:17;63944.34;;;-145.59;100.00
46594;BME280;35342;52.378;4.648;2023-03-12T08:58:43;63944.34;;;-145.59;100.00
46594;BME280;35342;52.378;4.648;2023-03-12T09:01:11;63944.34;;;-145.59;100.00
46594;BME280;35342;52.378;4.648;2023-03-12T09:03:37;63944.34;;;-145.59;100.00
46594;BME280;35342;52.378;4.648;2023-03-12T09:06:14;63944.34;;;-145.59;100.00
46594;BME280;35342;52.378;4.648;2023-03-12T09:08:42;63944.34;;;-145.59;100.00
46594;BME280;35342;52.378;4.648;2023-03-12T09:11:10;63944.34;;;-145.59;100.00
46594;BME280;35342;52.378;4.648;2023-03-12T09:13:37;63944.34;;;-145.59;100.00
46594;BME280;35342;52.378;4.648;2023-03-12T09:16:04;63944.34;;;-145.59;100.00
46594;BME280;35342;52.378;4.648;2023-03-12T09:18:30;63944.34;;;-145.59;100.00
46594;BME280;35342;52.378;4.648;2023-03-12T09:20:57;63944.34;;;-145.59;100.00
46594;BME280;35342;52.378;4.648;2023-03-12T09:23:24;63944.34;;;-145.59;100.00
46594;BME280;35342;52.378;4.648;2023-03-12T09:25:50;63944.34;;;-145.59;100.00
46594;BME280;35342;52.378;4.648;2023-03-12T09:28:16;63944.34;;;-145.59;100.00
46594;BME280;35342;52.378;4.648;2023-03-12T09:30:42;63944.34;;;-145.59;100.00
46594;BME280;35342;52.378;4.648;2023-03-12T09:33:08;63944.34;;;-145.59;100.00
46594;BME280;35342;52.378;4.648;2023-03-12T09:35:34;63944.34;;;-145.59;100.00
46594;BME280;35342;52.378;4.648;2023-03-12T09:38:01;63944.34;;;-145.59;100.00
46594;BME280;35342;52.378;4.648;2023-03-12T09:40:31;63944.34;;;-145.59;100.00
46594;BME280;35342;52.378;4.648;2023-03-12T09:43:05;63944.34;;;-145.59;100.00
46594;BME280;35342;52.378;4.648;2023-03-12T09:45:42;63944.34;;;-145.59;100.00
46594;BME280;35342;52.378;4.648;2023-03-12T09:48:14;63944.34;;;-145.59;100.00
46594;BME280;35342;52.378;4.648;2023-03-12T09:50:44;63944.34;;;-145.59;100.00
46594;BME280;35342;52.378;4.648;2023-03-12T09:55:54;63944.34;;;-145.59;100.00
46594;BME280;35342;52.378;4.648;2023-03-12T09:58:36;63944.34;;;-145.59;100.00
46594;BME280;35342;52.378;4.648;2023-03-12T10:07:07;63944.34;;;-145.59;100.00
46594;BME280;35342;52.378;4.648;2023-03-12T10:13:14;63944.34;;;-145.59;100.00
46594;BME280;35342;52.378;4.648;2023-03-12T10:21:47;63944.34;;;-145.59;100.00
46594;BME280;35342;52.378;4.648;2023-03-12T10:27:12;63944.34;;;-145.59;100.00
46594;BME280;35342;52.378;4.648;2023-03-12T10:29:45;63944.34;;;-145.59;100.00
46594;BME280;35342;52.378;4.648;2023-03-12T10:32:24;63944.34;;;-145.59;100.00
46594;BME280;35342;52.378;4.648;2023-03-12T10:35:02;63944.34;;;-145.59;100.00
46594;BME280;35342;52.378;4.648;2023-03-12T10:40:21;63944.34;;;-145.59;100.00
46594;BME280;35342;52.378;4.648;2023-03-12T10:42:48;63944.34;;;-145.59;100.00
46594;BME280;35342;52.378;4.648;2023-03-12T10:45:27;63944.34;;;-145.59;100.00
46594;BME280;35342;52.378;4.648;2023-03-12T10:48:03;63944.34;;;-145.59;100.00
46594;BME280;35342;52.378;4.648;2023-03-12T10:50:37;63944.34;;;-145.59;100.00
46594;BME280;35342;52.378;4.648;2023-03-12T10:53:22;63944.34;;;-145.59;100.00
46594;BME280;35342;52.378;4.648;2023-03-12T10:56:17;63944.34;;;-145.59;100.00
46594;BME280;35342;52.378;4.648;2023-03-12T10:58:52;63944.34;;;-145.59;100.00
46594;BME280;35342;52.378;4.648;2023-03-12T11:01:26;63944.34;;;-145.59;100.00
46594;BME280;35342;52.378;4.648;2023-03-12T11:06:38;63944.34;;;-145.59;100.00
46594;BME280;35342;52.378;4.648;2023-03-12T11:09:18;63944.34;;;-145.59;100.00
46594;BME280;35342;52.378;4.648;2023-03-12T11:11:46;63944.34;;;-145.59;100.00
46594;BME280;35342;52.378;4.648;2023-03-12T11:14:19;63944.34;;;-145.59;100.00
46594;BME280;35342;52.378;4.648;2023-03-12T11:16:46;63944.34;;;-145.59;100.00
46594;BME280;35342;52.378;4.648;2023-03-12T11:19:24;63944.34;;;-145.59;100.00
46594;BME280;35342;52.378;4.648;2023-03-12T11:21:58;63944.34;;;-145.59;100.00
46594;BME280;35342;52.378;4.648;2023-03-12T11:24:25;63944.34;;;-145.59;100.00
46594;BME280;35342;52.378;4.648;2023-03-12T11:27:01;63944.34;;;-145.59;100.00
46594;BME280;35342;52.378;4.648;2023-03-12T11:29:43;63944.34;;;-145.59;100.00
46594;BME280;35342;52.378;4.648;2023-03-12T11:34:54;63944.34;;;-145.59;100.00
46594;BME280;35342;52.378;4.648;2023-03-12T11:38:07;63944.34;;;-145.59;100.00
46594;BME280;35342;52.378;4.648;2023-03-12T11:47:01;63944.34;;;-145.59;100.00
46594;BME280;35342;52.378;4.648;2023-03-12T11:49:59;63944.34;;;-145.59;100.00
46594;BME280;35342;52.378;4.648;2023-03-12T11:58:19;63944.34;;;-145.59;100.00
46594;BME280;35342;52.378;4.648;2023-03-12T12:16:30;63944.34;;;-145.59;100.00
46594;BME280;35342;52.378;4.648;2023-03-12T12:21:59;63944.34;;;-145.59;100.00
46594;BME280;35342;52.378;4.648;2023-03-12T12:27:28;63944.34;;;-145.59;100.00
46594;BME280;35342;52.378;4.648;2023-03-12T12:30:29;63944.34;;;-145.59;100.00
46594;BME280;35342;52.378;4.648;2023-03-12T12:35:42;63944.34;;;-145.59;100.00
46594;BME280;35342;52.378;4.648;2023-03-12T12:41:22;63944.34;;;-145.59;100.00
46594;BME280;35342;52.378;4.648;2023-03-12T12:43:56;63944.34;;;-145.59;100.00
46594;BME280;35342;52.378;4.648;2023-03-12T12:46:52;63944.34;;;-145.59;100.00
46594;BME280;35342;52.378;4.648;2023-03-12T13:46:45;100503.06;;;29.83;30.57
46594;BME280;35342;52.378;4.648;2023-03-12T13:49:13;100507.72;;;29.79;30.94
46594;BME280;35342;52.378;4.648;2023-03-12T13:54:36;100525.59;;;30.04;30.04
46594;BME280;35342;52.378;4.648;2023-03-12T13:59:55;100546.94;;;28.46;31.80
46594;BME280;35342;52.378;4.648;2023-03-12T14:02:33;100535.28;;;28.62;31.92
46594;BME280;35342;52.378;4.648;2023-03-12T14:05:12;100542.13;;;28.21;32.18
46594;BME280;35342;52.378;4.648;2023-03-12T14:11:07;100546.28;;;28.41;32.20
46594;BME280;35342;52.378;4.648;2023-03-12T14:14:17;100552.09;;;28.79;31.68
46594;BME280;35342;52.378;4.648;2023-03-12T14:16:55;100555.75;;;28.14;32.83
46594;BME280;35342;52.378;4.648;2023-03-12T14:19:28;100551.44;;;27.68;33.91
46594;BME280;35342;52.378;4.648;2023-03-12T14:21:59;100549.06;;;27.53;34.26
46594;BME280;35342;52.378;4.648;2023-03-12T14:24:34;100547.50;;;27.69;34.07
46594;BME280;35342;52.378;4.648;2023-03-12T14:27:05;100560.19;;;28.15;33.46
46594;BME280;35342;52.378;4.648;2023-03-12T14:29:44;100565.28;;;28.13;33.71
46594;BME280;35342;52.378;4.648;2023-03-12T14:32:31;100556.97;;;27.91;33.62
46594;BME280;35342;52.378;4.648;2023-03-12T14:35:20;100562.72;;;27.86;34.01
46594;BME280;35342;52.378;4.648;2023-03-12T14:38:23;100567.25;;;28.04;33.41
46594;BME280;35342;52.378;4.648;2023-03-12T14:41:23;100567.56;;;28.50;32.53
46594;BME280;35342;52.378;4.648;2023-03-12T14:43:52;100572.50;;;28.53;32.16
46594;BME280;35342;52.378;4.648;2023-03-12T14:46:21;100547.50;;;28.83;31.94
46594;BME280;35342;52.378;4.648;2023-03-12T14:48:50;100544.53;;;28.88;31.81
46594;BME280;35342;52.378;4.648;2023-03-12T14:51:29;100558.50;;;28.53;32.04
46594;BME280;35342;52.378;4.648;2023-03-12T14:53:55;100540.31;;;28.34;32.48
46594;BME280;35342;52.378;4.648;2023-03-12T14:56:29;100541.66;;;28.36;32.08
46594;BME280;35342;52.378;4.648;2023-03-12T14:59:00;100546.09;;;28.20;32.41
46594;BME280;35342;52.378;4.648;2023-03-12T15:01:30;100539.59;;;28.11;32.67
46594;BME280;35342;52.378;4.648;2023-03-12T15:04:00;100546.41;;;28.27;32.96
46594;BME280;35342;52.378;4.648;2023-03-12T15:06:33;100530.63;;;28.31;32.86